Grover Hill, Ohio
Current Conditions -  °F | °C
As of 1:53 PM on Friday 24 Oct 2014 (Local Time) from KDFI Reporting Station
Overcast Overcast  
Wind Chill: 56°   Ceiling: 3400
Heat Index: 56°   Visibility: 9mi
Dew Point: 46°   Wind: 5mph
Humidity: 69%   Direction: NA
Pressure: 30.06"   Gusts: NA
Location:  41.02°N, 84.48°W
Report Text: KDFI 241753Z AUTO VRB04KT 9SM OVC034 13/08 A3006 RMK AO2 SLP181 T01330078 10139 20017 56017
Loading
Personal Weather Stations






























Interactive Weather Map
Tropical Storm Tracking
New forecast layout! Learn more

10-Day Weather Forecast

Advertisements
Track Severe Weather on mobile